sensor_id;sensor_type;location;lat;lon;timestamp;P1;durP1;ratioP1;P2;durP2;ratioP2
38557;SDS011;24333;42.626;23.308;2022-07-04T01:22:27;13.32;;;9.60;;
38557;SDS011;24333;42.626;23.308;2022-07-04T01:24:55;12.82;;;9.30;;
38557;SDS011;24333;42.626;23.308;2022-07-04T01:27:41;15.48;;;10.63;;
38557;SDS011;24333;42.626;23.308;2022-07-04T01:30:08;14.68;;;10.63;;
38557;SDS011;24333;42.626;23.308;2022-07-04T01:32:34;16.13;;;10.48;;
38557;SDS011;24333;42.626;23.308;2022-07-04T01:35:00;16.23;;;10.35;;
38557;SDS011;24333;42.626;23.308;2022-07-04T01:37:28;17.17;;;10.10;;
38557;SDS011;24333;42.626;23.308;2022-07-04T01:39:54;18.92;;;11.13;;
38557;SDS011;24333;42.626;23.308;2022-07-04T01:42:21;13.43;;;10.60;;
38557;SDS011;24333;42.626;23.308;2022-07-04T01:44:47;18.92;;;10.65;;
38557;SDS011;24333;42.626;23.308;2022-07-04T01:47:13;13.27;;;10.32;;
38557;SDS011;24333;42.626;23.308;2022-07-04T05:30:46;12.43;;;6.90;;
38557;SDS011;24333;42.626;23.308;2022-07-04T05:33:12;12.32;;;6.30;;
38557;SDS011;24333;42.626;23.308;2022-07-04T05:35:37;11.20;;;6.45;;
38557;SDS011;24333;42.626;23.308;2022-07-04T06:01:30;13.30;;;5.80;;
38557;SDS011;24333;42.626;23.308;2022-07-04T06:06:31;9.70;;;5.93;;
38557;SDS011;24333;42.626;23.308;2022-07-04T06:11:44;10.88;;;5.80;;
38557;SDS011;24333;42.626;23.308;2022-07-04T06:14:10;12.40;;;5.97;;
38557;SDS011;24333;42.626;23.308;2022-07-04T06:16:36;9.95;;;6.53;;
38557;SDS011;24333;42.626;23.308;2022-07-04T06:24:32;13.60;;;6.45;;
38557;SDS011;24333;42.626;23.308;2022-07-04T06:26:57;15.57;;;6.30;;
38557;SDS011;24333;42.626;23.308;2022-07-04T06:29:22;12.90;;;6.32;;
38557;SDS011;24333;42.626;23.308;2022-07-04T06:31:48;14.38;;;6.22;;
38557;SDS011;24333;42.626;23.308;2022-07-04T06:34:13;13.25;;;5.85;;
38557;SDS011;24333;42.626;23.308;2022-07-04T06:39:46;9.52;;;6.63;;
38557;SDS011;24333;42.626;23.308;2022-07-04T06:42:12;13.30;;;6.30;;
38557;SDS011;24333;42.626;23.308;2022-07-04T06:44:37;15.07;;;6.95;;
38557;SDS011;24333;42.626;23.308;2022-07-04T06:55:32;15.00;;;6.93;;
38557;SDS011;24333;42.626;23.308;2022-07-04T07:00:42;14.10;;;6.65;;
38557;SDS011;24333;42.626;23.308;2022-07-04T07:03:09;17.70;;;5.90;;
38557;SDS011;24333;42.626;23.308;2022-07-04T07:05:34;13.85;;;6.13;;
38557;SDS011;24333;42.626;23.308;2022-07-04T07:08:02;15.65;;;6.53;;
38557;SDS011;24333;42.626;23.308;2022-07-04T07:10:29;12.60;;;5.90;;
38557;SDS011;24333;42.626;23.308;2022-07-04T07:12:54;8.57;;;5.70;;
38557;SDS011;24333;42.626;23.308;2022-07-04T07:15:19;14.95;;;6.03;;
38557;SDS011;24333;42.626;23.308;2022-07-04T07:20:31;18.90;;;5.90;;
38557;SDS011;24333;42.626;23.308;2022-07-04T07:23:07;15.48;;;6.25;;
38557;SDS011;24333;42.626;23.308;2022-07-04T07:25:33;14.60;;;5.90;;
38557;SDS011;24333;42.626;23.308;2022-07-04T07:27:58;13.68;;;5.78;;
38557;SDS011;24333;42.626;23.308;2022-07-04T07:30:24;20.33;;;6.60;;
38557;SDS011;24333;42.626;23.308;2022-07-04T07:32:49;13.38;;;6.22;;
38557;SDS011;24333;42.626;23.308;2022-07-04T07:35:14;21.73;;;6.55;;
38557;SDS011;24333;42.626;23.308;2022-07-04T07:37:49;23.40;;;6.05;;
38557;SDS011;24333;42.626;23.308;2022-07-04T07:40:14;14.45;;;5.82;;
38557;SDS011;24333;42.626;23.308;2022-07-04T07:42:40;15.32;;;7.00;;
38557;SDS011;24333;42.626;23.308;2022-07-04T07:45:05;21.13;;;7.13;;
38557;SDS011;24333;42.626;23.308;2022-07-04T07:47:31;14.32;;;6.72;;
38557;SDS011;24333;42.626;23.308;2022-07-04T08:52:02;10.98;;;6.28;;
38557;SDS011;24333;42.626;23.308;2022-07-04T08:54:30;13.23;;;6.03;;
38557;SDS011;24333;42.626;23.308;2022-07-04T08:57:15;10.13;;;5.97;;
38557;SDS011;24333;42.626;23.308;2022-07-04T09:00:02;10.10;;;6.10;;
38557;SDS011;24333;42.626;23.308;2022-07-04T09:02:29;14.63;;;5.78;;
38557;SDS011;24333;42.626;23.308;2022-07-04T09:05:01;9.32;;;6.00;;
38557;SDS011;24333;42.626;23.308;2022-07-04T09:07:33;9.85;;;6.00;;
38557;SDS011;24333;42.626;23.308;2022-07-04T09:09:59;11.70;;;6.15;;
38557;SDS011;24333;42.626;23.308;2022-07-04T09:12:27;11.98;;;6.13;;
38557;SDS011;24333;42.626;23.308;2022-07-04T09:14:54;9.90;;;5.93;;
38557;SDS011;24333;42.626;23.308;2022-07-04T09:17:22;17.80;;;6.32;;
38557;SDS011;24333;42.626;23.308;2022-07-04T09:22:53;10.40;;;6.45;;
38557;SDS011;24333;42.626;23.308;2022-07-04T09:25:20;14.65;;;5.80;;
38557;SDS011;24333;42.626;23.308;2022-07-04T09:27:47;12.48;;;5.55;;
38557;SDS011;24333;42.626;23.308;2022-07-04T09:30:15;10.75;;;5.72;;
38557;SDS011;24333;42.626;23.308;2022-07-04T09:32:43;13.90;;;6.25;;
38557;SDS011;24333;42.626;23.308;2022-07-04T09:35:29;12.40;;;5.90;;
38557;SDS011;24333;42.626;23.308;2022-07-04T09:37:57;8.07;;;6.15;;
38557;SDS011;24333;42.626;23.308;2022-07-04T09:40:27;14.07;;;6.68;;
38557;SDS011;24333;42.626;23.308;2022-07-04T09:42:53;9.00;;;5.80;;
38557;SDS011;24333;42.626;23.308;2022-07-04T09:45:20;13.65;;;6.43;;
38557;SDS011;24333;42.626;23.308;2022-07-04T09:47:49;12.82;;;6.30;;
38557;SDS011;24333;42.626;23.308;2022-07-04T09:50:16;9.30;;;6.28;;
38557;SDS011;24333;42.626;23.308;2022-07-04T09:52:51;11.40;;;5.93;;
38557;SDS011;24333;42.626;23.308;2022-07-04T09:55:39;9.18;;;5.95;;
38557;SDS011;24333;42.626;23.308;2022-07-04T09:58:05;8.48;;;5.90;;
38557;SDS011;24333;42.626;23.308;2022-07-04T10:00:36;10.55;;;5.85;;
38557;SDS011;24333;42.626;23.308;2022-07-04T10:05:40;8.83;;;6.13;;
38557;SDS011;24333;42.626;23.308;2022-07-04T10:08:06;11.38;;;6.13;;
38557;SDS011;24333;42.626;23.308;2022-07-04T10:10:32;9.77;;;5.82;;
38557;SDS011;24333;42.626;23.308;2022-07-04T10:13:03;7.50;;;5.95;;
38557;SDS011;24333;42.626;23.308;2022-07-04T10:15:30;13.52;;;6.15;;
38557;SDS011;24333;42.626;23.308;2022-07-04T10:17:57;9.77;;;5.80;;
38557;SDS011;24333;42.626;23.308;2022-07-04T10:20:23;13.40;;;6.30;;
38557;SDS011;24333;42.626;23.308;2022-07-04T10:22:48;9.80;;;5.65;;
38557;SDS011;24333;42.626;23.308;2022-07-04T10:25:14;10.40;;;5.93;;
38557;SDS011;24333;42.626;23.308;2022-07-04T10:27:40;12.20;;;5.85;;
38557;SDS011;24333;42.626;23.308;2022-07-04T10:30:06;13.23;;;6.07;;
38557;SDS011;24333;42.626;23.308;2022-07-04T10:32:36;9.20;;;5.07;;
38557;SDS011;24333;42.626;23.308;2022-07-04T10:35:03;10.63;;;5.68;;
38557;SDS011;24333;42.626;23.308;2022-07-04T11:01:12;9.77;;;5.43;;
38557;SDS011;24333;42.626;23.308;2022-07-04T11:03:45;9.13;;;5.78;;
38557;SDS011;24333;42.626;23.308;2022-07-04T11:11:58;11.35;;;5.82;;
38557;SDS011;24333;42.626;23.308;2022-07-04T11:14:31;8.70;;;5.38;;
38557;SDS011;24333;42.626;23.308;2022-07-04T11:16:59;9.85;;;5.57;;
38557;SDS011;24333;42.626;23.308;2022-07-04T11:19:25;10.05;;;5.35;;
38557;SDS011;24333;42.626;23.308;2022-07-04T11:21:53;11.70;;;6.00;;
38557;SDS011;24333;42.626;23.308;2022-07-04T11:24:19;11.20;;;5.70;;
38557;SDS011;24333;42.626;23.308;2022-07-04T11:26:45;6.30;;;5.38;;
38557;SDS011;24333;42.626;23.308;2022-07-04T11:29:14;10.90;;;5.60;;
38557;SDS011;24333;42.626;23.308;2022-07-04T11:31:41;11.95;;;5.97;;
38557;SDS011;24333;42.626;23.308;2022-07-04T11:34:08;10.18;;;5.95;;
38557;SDS011;24333;42.626;23.308;2022-07-04T11:36:34;9.57;;;6.03;;
38557;SDS011;24333;42.626;23.308;2022-07-04T11:39:00;10.07;;;5.82;;
38557;SDS011;24333;42.626;23.308;2022-07-04T11:44:20;11.50;;;5.68;;
38557;SDS011;24333;42.626;23.308;2022-07-04T11:47:13;11.73;;;6.32;;
38557;SDS011;24333;42.626;23.308;2022-07-04T11:49:48;10.88;;;5.93;;
38557;SDS011;24333;42.626;23.308;2022-07-04T11:52:17;9.45;;;6.20;;
38557;SDS011;24333;42.626;23.308;2022-07-04T11:54:45;15.35;;;5.97;;
38557;SDS011;24333;42.626;23.308;2022-07-04T11:57:13;15.15;;;6.55;;
38557;SDS011;24333;42.626;23.308;2022-07-04T11:59:43;12.85;;;5.95;;
38557;SDS011;24333;42.626;23.308;2022-07-04T12:02:16;9.70;;;6.15;;
38557;SDS011;24333;42.626;23.308;2022-07-04T12:04:42;12.95;;;6.10;;
38557;SDS011;24333;42.626;23.308;2022-07-04T12:07:09;9.35;;;6.13;;
38557;SDS011;24333;42.626;23.308;2022-07-04T12:09:39;6.40;;;5.60;;
38557;SDS011;24333;42.626;23.308;2022-07-04T12:12:05;10.90;;;5.80;;
38557;SDS011;24333;42.626;23.308;2022-07-04T12:14:31;7.95;;;6.18;;
38557;SDS011;24333;42.626;23.308;2022-07-04T12:20:01;12.07;;;6.10;;
38557;SDS011;24333;42.626;23.308;2022-07-04T12:22:41;8.45;;;5.93;;
38557;SDS011;24333;42.626;23.308;2022-07-04T12:25:22;16.98;;;6.38;;
38557;SDS011;24333;42.626;23.308;2022-07-04T12:27:52;10.85;;;5.93;;
38557;SDS011;24333;42.626;23.308;2022-07-04T12:30:18;10.35;;;6.00;;
38557;SDS011;24333;42.626;23.308;2022-07-04T12:32:48;9.60;;;6.10;;
38557;SDS011;24333;42.626;23.308;2022-07-04T12:38:03;8.02;;;6.32;;
38557;SDS011;24333;42.626;23.308;2022-07-04T12:40:37;8.05;;;5.97;;
38557;SDS011;24333;42.626;23.308;2022-07-04T12:43:14;11.00;;;6.10;;
38557;SDS011;24333;42.626;23.308;2022-07-04T12:45:44;9.00;;;6.60;;
38557;SDS011;24333;42.626;23.308;2022-07-04T12:48:20;10.88;;;6.43;;
38557;SDS011;24333;42.626;23.308;2022-07-04T12:50:49;11.35;;;7.05;;
38557;SDS011;24333;42.626;23.308;2022-07-04T12:53:16;9.15;;;6.63;;
38557;SDS011;24333;42.626;23.308;2022-07-04T12:55:42;11.75;;;6.53;;
38557;SDS011;24333;42.626;23.308;2022-07-04T12:58:09;12.85;;;6.60;;
38557;SDS011;24333;42.626;23.308;2022-07-04T13:00:35;9.93;;;6.53;;
38557;SDS011;24333;42.626;23.308;2022-07-04T13:03:01;11.25;;;6.60;;
38557;SDS011;24333;42.626;23.308;2022-07-04T13:05:27;13.23;;;6.22;;
38557;SDS011;24333;42.626;23.308;2022-07-04T13:07:52;9.45;;;6.28;;
38557;SDS011;24333;42.626;23.308;2022-07-04T13:10:18;15.82;;;6.53;;
38557;SDS011;24333;42.626;23.308;2022-07-04T13:12:43;10.65;;;6.35;;
38557;SDS011;24333;42.626;23.308;2022-07-04T13:15:09;9.20;;;6.28;;
38557;SDS011;24333;42.626;23.308;2022-07-04T13:17:36;8.10;;;6.25;;
38557;SDS011;24333;42.626;23.308;2022-07-04T13:20:02;11.70;;;6.78;;
38557;SDS011;24333;42.626;23.308;2022-07-04T13:22:28;12.43;;;6.68;;
38557;SDS011;24333;42.626;23.308;2022-07-04T13:24:54;10.32;;;5.97;;
38557;SDS011;24333;42.626;23.308;2022-07-04T13:27:20;11.73;;;6.43;;
38557;SDS011;24333;42.626;23.308;2022-07-04T13:29:46;10.98;;;6.35;;
38557;SDS011;24333;42.626;23.308;2022-07-04T13:32:11;9.52;;;6.68;;
38557;SDS011;24333;42.626;23.308;2022-07-04T13:34:37;7.88;;;6.00;;
38557;SDS011;24333;42.626;23.308;2022-07-04T13:37:03;10.77;;;6.45;;
38557;SDS011;24333;42.626;23.308;2022-07-04T13:39:28;9.75;;;6.30;;
38557;SDS011;24333;42.626;23.308;2022-07-04T13:41:54;9.82;;;6.60;;
38557;SDS011;24333;42.626;23.308;2022-07-04T13:44:20;9.77;;;6.65;;
38557;SDS011;24333;42.626;23.308;2022-07-04T13:46:45;7.20;;;5.43;;
38557;SDS011;24333;42.626;23.308;2022-07-04T13:49:11;11.90;;;6.40;;
38557;SDS011;24333;42.626;23.308;2022-07-04T13:51:38;11.70;;;6.13;;
38557;SDS011;24333;42.626;23.308;2022-07-04T13:54:06;10.68;;;6.43;;
38557;SDS011;24333;42.626;23.308;2022-07-04T13:56:31;8.50;;;6.22;;
38557;SDS011;24333;42.626;23.308;2022-07-04T13:58:58;14.43;;;6.22;;
38557;SDS011;24333;42.626;23.308;2022-07-04T14:01:25;10.63;;;6.88;;
38557;SDS011;24333;42.626;23.308;2022-07-04T14:03:50;10.40;;;6.30;;
38557;SDS011;24333;42.626;23.308;2022-07-04T14:06:16;15.82;;;6.45;;
38557;SDS011;24333;42.626;23.308;2022-07-04T14:08:43;14.82;;;6.80;;
38557;SDS011;24333;42.626;23.308;2022-07-04T14:11:10;10.70;;;6.50;;
38557;SDS011;24333;42.626;23.308;2022-07-04T14:13:38;10.88;;;6.88;;
38557;SDS011;24333;42.626;23.308;2022-07-04T14:16:05;7.88;;;6.13;;
38557;SDS011;24333;42.626;23.308;2022-07-04T14:18:31;12.20;;;6.85;;
38557;SDS011;24333;42.626;23.308;2022-07-04T14:20:57;22.80;;;7.40;;
38557;SDS011;24333;42.626;23.308;2022-07-04T14:23:23;15.05;;;6.88;;
38557;SDS011;24333;42.626;23.308;2022-07-04T14:26:10;15.35;;;6.10;;
38557;SDS011;24333;42.626;23.308;2022-07-04T14:28:38;9.55;;;7.20;;
38557;SDS011;24333;42.626;23.308;2022-07-04T14:31:04;12.00;;;6.28;;
38557;SDS011;24333;42.626;23.308;2022-07-04T14:33:30;12.50;;;6.75;;
38557;SDS011;24333;42.626;23.308;2022-07-04T14:35:56;10.27;;;6.65;;
38557;SDS011;24333;42.626;23.308;2022-07-04T14:38:21;10.50;;;6.28;;
38557;SDS011;24333;42.626;23.308;2022-07-04T14:40:59;14.98;;;7.13;;
38557;SDS011;24333;42.626;23.308;2022-07-04T14:43:35;8.75;;;6.00;;
38557;SDS011;24333;42.626;23.308;2022-07-04T14:46:01;11.27;;;6.53;;
38557;SDS011;24333;42.626;23.308;2022-07-04T14:48:27;11.98;;;6.88;;
38557;SDS011;24333;42.626;23.308;2022-07-04T14:50:52;9.80;;;6.50;;
38557;SDS011;24333;42.626;23.308;2022-07-04T14:56:05;12.97;;;6.73;;
38557;SDS011;24333;42.626;23.308;2022-07-04T14:58:33;10.15;;;6.88;;
38557;SDS011;24333;42.626;23.308;2022-07-04T15:00:58;9.35;;;6.35;;
38557;SDS011;24333;42.626;23.308;2022-07-04T15:03:24;15.43;;;6.72;;
38557;SDS011;24333;42.626;23.308;2022-07-04T15:05:50;9.73;;;6.25;;
38557;SDS011;24333;42.626;23.308;2022-07-04T15:08:15;13.40;;;6.90;;
38557;SDS011;24333;42.626;23.308;2022-07-04T15:10:41;11.90;;;6.95;;
38557;SDS011;24333;42.626;23.308;2022-07-04T15:13:06;15.90;;;6.53;;
38557;SDS011;24333;42.626;23.308;2022-07-04T15:15:32;12.85;;;6.95;;
38557;SDS011;24333;42.626;23.308;2022-07-04T15:17:58;15.07;;;7.03;;
38557;SDS011;24333;42.626;23.308;2022-07-04T15:20:40;12.75;;;6.43;;
38557;SDS011;24333;42.626;23.308;2022-07-04T15:23:23;10.38;;;6.85;;
38557;SDS011;24333;42.626;23.308;2022-07-04T15:26:08;10.23;;;7.03;;
38557;SDS011;24333;42.626;23.308;2022-07-04T15:28:34;11.43;;;7.10;;
38557;SDS011;24333;42.626;23.308;2022-07-04T15:30:59;8.02;;;6.30;;
38557;SDS011;24333;42.626;23.308;2022-07-04T15:33:25;9.55;;;6.88;;
38557;SDS011;24333;42.626;23.308;2022-07-04T15:35:53;10.52;;;6.88;;
38557;SDS011;24333;42.626;23.308;2022-07-04T15:38:22;12.77;;;7.60;;
38557;SDS011;24333;42.626;23.308;2022-07-04T15:43:23;11.20;;;6.82;;
38557;SDS011;24333;42.626;23.308;2022-07-04T15:48:25;9.40;;;6.57;;
38557;SDS011;24333;42.626;23.308;2022-07-04T15:53:35;9.70;;;6.93;;
38557;SDS011;24333;42.626;23.308;2022-07-04T16:14:10;18.80;;;7.75;;
38557;SDS011;24333;42.626;23.308;2022-07-04T16:16:38;11.77;;;7.25;;
38557;SDS011;24333;42.626;23.308;2022-07-04T16:19:04;13.68;;;7.47;;
38557;SDS011;24333;42.626;23.308;2022-07-04T16:21:29;12.98;;;8.00;;
38557;SDS011;24333;42.626;23.308;2022-07-04T16:23:55;11.18;;;7.57;;
38557;SDS011;24333;42.626;23.308;2022-07-04T16:26:20;15.02;;;7.80;;
38557;SDS011;24333;42.626;23.308;2022-07-04T16:28:46;13.20;;;8.13;;
38557;SDS011;24333;42.626;23.308;2022-07-04T16:31:12;14.30;;;7.82;;
38557;SDS011;24333;42.626;23.308;2022-07-04T16:33:38;16.55;;;7.80;;
38557;SDS011;24333;42.626;23.308;2022-07-04T16:36:03;16.00;;;8.32;;
38557;SDS011;24333;42.626;23.308;2022-07-04T16:38:29;12.25;;;7.72;;
38557;SDS011;24333;42.626;23.308;2022-07-04T16:40:54;16.27;;;8.95;;
38557;SDS011;24333;42.626;23.308;2022-07-04T16:43:20;17.05;;;8.10;;
38557;SDS011;24333;42.626;23.308;2022-07-04T16:45:45;14.52;;;7.97;;
38557;SDS011;24333;42.626;23.308;2022-07-04T17:34:39;28.35;;;12.30;;
38557;SDS011;24333;42.626;23.308;2022-07-04T17:37:04;22.88;;;9.02;;
38557;SDS011;24333;42.626;23.308;2022-07-04T17:39:32;13.45;;;7.95;;
38557;SDS011;24333;42.626;23.308;2022-07-04T17:41:57;15.93;;;7.60;;
38557;SDS011;24333;42.626;23.308;2022-07-04T17:44:23;17.95;;;7.60;;
38557;SDS011;24333;42.626;23.308;2022-07-04T17:46:50;16.77;;;7.38;;
38557;SDS011;24333;42.626;23.308;2022-07-04T17:49:23;11.40;;;7.22;;
38557;SDS011;24333;42.626;23.308;2022-07-04T17:51:48;12.85;;;7.25;;
38557;SDS011;24333;42.626;23.308;2022-07-04T17:54:14;10.25;;;7.72;;
38557;SDS011;24333;42.626;23.308;2022-07-04T17:56:40;12.43;;;7.45;;
38557;SDS011;24333;42.626;23.308;2022-07-04T17:59:18;17.48;;;7.63;;
38557;SDS011;24333;42.626;23.308;2022-07-04T18:01:43;11.25;;;7.45;;
38557;SDS011;24333;42.626;23.308;2022-07-04T18:04:09;9.70;;;6.22;;
38557;SDS011;24333;42.626;23.308;2022-07-04T18:06:36;8.35;;;6.90;;
38557;SDS011;24333;42.626;23.308;2022-07-04T18:09:02;10.95;;;6.55;;
38557;SDS011;24333;42.626;23.308;2022-07-04T18:11:28;8.20;;;6.95;;
38557;SDS011;24333;42.626;23.308;2022-07-04T18:13:54;10.45;;;6.85;;
38557;SDS011;24333;42.626;23.308;2022-07-04T18:16:19;13.32;;;7.00;;
38557;SDS011;24333;42.626;23.308;2022-07-04T18:18:51;12.02;;;6.82;;
38557;SDS011;24333;42.626;23.308;2022-07-04T18:21:16;11.23;;;7.03;;
38557;SDS011;24333;42.626;23.308;2022-07-04T18:23:42;11.07;;;6.40;;
38557;SDS011;24333;42.626;23.308;2022-07-04T18:26:07;9.93;;;6.25;;
38557;SDS011;24333;42.626;23.308;2022-07-04T18:28:51;11.57;;;6.57;;
38557;SDS011;24333;42.626;23.308;2022-07-04T18:38:11;11.23;;;6.82;;
38557;SDS011;24333;42.626;23.308;2022-07-04T18:48:55;10.18;;;6.18;;
38557;SDS011;24333;42.626;23.308;2022-07-04T18:51:21;11.20;;;5.82;;
38557;SDS011;24333;42.626;23.308;2022-07-04T18:53:46;9.27;;;5.65;;
38557;SDS011;24333;42.626;23.308;2022-07-04T18:56:12;10.68;;;5.75;;
38557;SDS011;24333;42.626;23.308;2022-07-04T18:58:47;9.90;;;5.80;;
38557;SDS011;24333;42.626;23.308;2022-07-04T19:21:54;9.55;;;5.78;;
38557;SDS011;24333;42.626;23.308;2022-07-04T19:24:20;11.65;;;5.90;;
38557;SDS011;24333;42.626;23.308;2022-07-04T19:26:52;8.25;;;4.88;;
38557;SDS011;24333;42.626;23.308;2022-07-04T19:29:30;9.77;;;6.05;;
38557;SDS011;24333;42.626;23.308;2022-07-04T19:31:56;6.57;;;5.13;;
38557;SDS011;24333;42.626;23.308;2022-07-04T19:34:22;7.70;;;5.10;;
38557;SDS011;24333;42.626;23.308;2022-07-04T19:36:47;6.80;;;4.65;;
38557;SDS011;24333;42.626;23.308;2022-07-04T19:39:13;6.93;;;4.97;;
38557;SDS011;24333;42.626;23.308;2022-07-04T19:41:40;10.95;;;5.13;;
38557;SDS011;24333;42.626;23.308;2022-07-04T19:44:06;13.93;;;5.25;;
38557;SDS011;24333;42.626;23.308;2022-07-04T19:46:38;6.75;;;4.80;;
38557;SDS011;24333;42.626;23.308;2022-07-04T19:49:03;10.48;;;4.75;;
38557;SDS011;24333;42.626;23.308;2022-07-04T19:51:29;8.73;;;4.78;;
38557;SDS011;24333;42.626;23.308;2022-07-04T19:53:54;10.40;;;5.18;;
38557;SDS011;24333;42.626;23.308;2022-07-04T19:56:26;11.82;;;5.35;;
38557;SDS011;24333;42.626;23.308;2022-07-04T20:01:46;17.33;;;5.53;;
38557;SDS011;24333;42.626;23.308;2022-07-04T20:04:12;6.95;;;5.05;;
38557;SDS011;24333;42.626;23.308;2022-07-04T20:06:38;6.25;;;4.57;;
38557;SDS011;24333;42.626;23.308;2022-07-04T20:09:06;6.03;;;5.40;;
38557;SDS011;24333;42.626;23.308;2022-07-04T20:11:31;16.30;;;5.47;;
38557;SDS011;24333;42.626;23.308;2022-07-04T20:13:57;9.00;;;5.18;;
38557;SDS011;24333;42.626;23.308;2022-07-04T20:16:22;11.30;;;5.35;;
38557;SDS011;24333;42.626;23.308;2022-07-04T20:18:55;9.00;;;4.95;;
38557;SDS011;24333;42.626;23.308;2022-07-04T20:21:20;9.93;;;5.53;;
38557;SDS011;24333;42.626;23.308;2022-07-04T20:23:45;11.05;;;5.18;;
38557;SDS011;24333;42.626;23.308;2022-07-04T20:29:33;8.80;;;5.25;;
38557;SDS011;24333;42.626;23.308;2022-07-04T20:31:58;11.73;;;4.88;;
38557;SDS011;24333;42.626;23.308;2022-07-04T20:34:24;8.57;;;5.35;;
38557;SDS011;24333;42.626;23.308;2022-07-04T20:36:52;11.50;;;5.75;;
38557;SDS011;24333;42.626;23.308;2022-07-04T20:39:17;12.55;;;6.50;;
38557;SDS011;24333;42.626;23.308;2022-07-04T20:41:42;15.60;;;6.55;;
38557;SDS011;24333;42.626;23.308;2022-07-04T20:44:08;9.02;;;6.47;;
38557;SDS011;24333;42.626;23.308;2022-07-04T20:46:42;12.90;;;6.32;;
38557;SDS011;24333;42.626;23.308;2022-07-04T20:49:08;10.90;;;6.18;;
38557;SDS011;24333;42.626;23.308;2022-07-04T20:51:34;14.73;;;6.65;;
38557;SDS011;24333;42.626;23.308;2022-07-04T20:54:00;11.90;;;5.10;;
38557;SDS011;24333;42.626;23.308;2022-07-04T21:15:46;17.50;;;6.32;;
38557;SDS011;24333;42.626;23.308;2022-07-04T21:18:11;9.60;;;5.88;;
38557;SDS011;24333;42.626;23.308;2022-07-04T21:20:36;14.27;;;6.32;;
38557;SDS011;24333;42.626;23.308;2022-07-04T21:23:02;11.55;;;6.40;;
38557;SDS011;24333;42.626;23.308;2022-07-04T22:07:46;10.40;;;6.88;;
38557;SDS011;24333;42.626;23.308;2022-07-04T22:10:12;11.63;;;6.35;;
38557;SDS011;24333;42.626;23.308;2022-07-04T22:30:44;8.75;;;5.45;;
38557;SDS011;24333;42.626;23.308;2022-07-04T22:33:09;8.07;;;5.40;;
38557;SDS011;24333;42.626;23.308;2022-07-04T22:51:06;17.70;;;7.70;;
